Time;durP1;ratioP1;P1;durP2;ratioP2;P2;SDS_P1;SDS_P2;PMS_P1;PMS_P2;Temp;Humidity;BMP_temperature;BMP_pressure;BME280_temperature;BME280_humidity;BME280_pressure;Samples;Min_cycle;Max_cycle;Signal;HPM_P1;HPM_P2
2021/08/09 00:00:38;;;;;;;6.63;3.10;;;17.40;67.70;;;;;;5051859;28;20539;-91
2021/08/09 00:03:04;;;;;;;7.03;2.58;;;17.50;67.90;;;;;;5051350;28;20231;-91
2021/08/09 00:05:32;;;;;;;11.10;3.10;;;17.60;67.60;;;;;;5052488;28;20552;-92
2021/08/09 00:07:57;;;;;;;13.38;2.60;;;17.50;67.70;;;;;;5054807;28;20477;-91
2021/08/09 00:10:23;;;;;;;9.43;2.90;;;17.50;67.90;;;;;;5056291;28;20185;-92
2021/08/09 00:12:50;;;;;;;9.90;4.43;;;17.40;67.80;;;;;;5055077;28;20251;-91
2021/08/09 00:15:16;;;;;;;7.20;2.30;;;17.40;68.00;;;;;;5055567;28;20722;-91
2021/08/09 00:17:41;;;;;;;6.00;2.80;;;17.50;68.00;;;;;;5055234;28;20197;-91
2021/08/09 00:20:08;;;;;;;11.43;3.10;;;17.40;67.90;;;;;;5055608;28;20174;-92
2021/08/09 00:22:33;;;;;;;6.18;2.70;;;17.50;68.30;;;;;;5054969;28;20212;-91
2021/08/09 00:24:59;;;;;;;14.93;3.77;;;17.60;68.00;;;;;;5055352;28;20197;-91
2021/08/09 00:27:25;;;;;;;5.53;2.93;;;17.50;67.80;;;;;;5057093;28;20197;-91
2021/08/09 00:29:50;;;;;;;8.73;2.33;;;17.60;67.80;;;;;;5055405;28;20652;-91
2021/08/09 00:32:18;;;;;;;9.47;2.80;;;17.70;67.50;;;;;;5055053;28;20580;-91
2021/08/09 00:34:44;;;;;;;9.15;2.85;;;17.70;67.30;;;;;;5054927;28;20335;-92
2021/08/09 00:37:10;;;;;;;6.68;2.75;;;17.70;67.30;;;;;;5058727;28;20173;-91
2021/08/09 00:39:35;;;;;;;7.10;2.43;;;17.70;67.50;;;;;;5064437;28;20221;-91
2021/08/09 00:42:01;;;;;;;10.50;2.60;;;17.70;67.30;;;;;;5054678;28;20615;-91
2021/08/09 00:44:27;;;;;;;4.23;2.53;;;17.80;67.20;;;;;;5055117;28;20180;-91
2021/08/09 00:46:54;;;;;;;8.10;3.87;;;17.70;67.20;;;;;;5055222;28;20419;-91
2021/08/09 00:49:19;;;;;;;11.10;3.10;;;17.70;67.50;;;;;;5055046;28;20647;-91
2021/08/09 00:51:45;;;;;;;7.03;2.73;;;17.70;67.60;;;;;;5054692;28;20181;-92
2021/08/09 00:54:12;;;;;;;4.35;2.95;;;17.70;67.50;;;;;;5054962;28;20177;-91
2021/08/09 00:56:38;;;;;;;7.43;2.70;;;17.60;67.50;;;;;;5054738;28;20182;-91
2021/08/09 00:59:04;;;;;;;10.48;3.45;;;17.60;67.70;;;;;;5056300;28;20201;-91
2021/08/09 01:01:30;;;;;;;5.18;3.50;;;17.60;67.70;;;;;;5054871;28;20221;-91
2021/08/09 01:03:56;;;;;;;13.87;5.00;;;17.60;67.80;;;;;;5054864;28;20574;-91
2021/08/09 01:06:22;;;;;;;6.57;2.40;;;17.70;67.90;;;;;;5060680;28;20188;-91
2021/08/09 01:09:01;;;;;;;6.03;2.80;;;17.80;67.70;;;;;;5060354;28;20430;-91
2021/08/09 01:11:48;;;;;;;8.70;2.53;;;17.90;67.40;;;;;;5059579;28;20454;-91
2021/08/09 01:14:37;;;;;;;6.00;3.35;;;18.10;67.00;;;;;;5056809;28;20212;-92
2021/08/09 01:17:04;;;;;;;9.32;2.58;;;18.00;66.70;;;;;;5027790;28;20236;-91
2021/08/09 01:19:38;;;;;;;9.82;3.25;;;18.00;67.00;;;;;;5055111;28;20205;-92
2021/08/09 01:22:37;;;;;;;8.27;2.72;;;17.90;67.10;;;;;;5056795;28;20188;-91
2021/08/09 01:25:14;;;;;;;8.45;2.47;;;17.80;67.20;;;;;;5055800;28;20181;-91
2021/08/09 01:27:41;;;;;;;5.88;2.88;;;17.80;67.30;;;;;;5056334;28;20176;-92
2021/08/09 01:30:09;;;;;;;9.70;2.35;;;17.90;67.50;;;;;;5057878;28;20192;-92
2021/08/09 01:32:38;;;;;;;8.05;3.45;;;17.90;67.20;;;;;;5062327;28;20188;-91
2021/08/09 01:35:07;;;;;;;9.52;2.40;;;18.00;67.00;;;;;;5070261;28;20599;-92
2021/08/09 01:37:36;;;;;;;12.18;2.63;;;18.00;66.90;;;;;;5063921;28;20256;-91
2021/08/09 01:40:05;;;;;;;7.35;3.30;;;17.80;67.10;;;;;;5064234;28;20181;-91
2021/08/09 01:42:31;;;;;;;13.18;3.95;;;17.70;67.60;;;;;;5061158;28;20197;-91
2021/08/09 01:44:57;;;;;;;19.15;3.60;;;17.70;67.80;;;;;;5063554;28;20187;-91
2021/08/09 01:47:24;;;;;;;7.20;2.23;;;17.90;67.60;;;;;;5059474;28;20165;-91
2021/08/09 01:49:50;;;;;;;6.38;2.28;;;17.80;67.70;;;;;;5058183;28;20420;-91
2021/08/09 01:52:16;;;;;;;9.17;3.00;;;17.70;67.90;;;;;;5057172;28;20568;-91
2021/08/09 01:54:42;;;;;;;12.80;3.15;;;17.70;68.20;;;;;;5055950;28;20440;-91
2021/08/09 01:57:08;;;;;;;5.38;2.90;;;17.70;68.30;;;;;;5053854;28;20185;-92
2021/08/09 01:59:34;;;;;;;7.47;3.65;;;17.90;68.10;;;;;;5053767;28;20266;-92
2021/08/09 02:02:00;;;;;;;7.40;3.60;;;17.70;67.90;;;;;;5053599;28;20201;-91
2021/08/09 02:04:25;;;;;;;7.77;3.60;;;17.90;68.00;;;;;;5053693;28;20174;-91
2021/08/09 02:06:51;;;;;;;4.30;2.83;;;17.80;67.80;;;;;;5053514;28;20177;-92
2021/08/09 02:09:17;;;;;;;9.00;3.43;;;17.70;68.10;;;;;;5053695;28;20177;-91
2021/08/09 02:11:42;;;;;;;7.10;2.60;;;17.70;68.20;;;;;;5052887;28;20528;-91
2021/08/09 02:14:11;;;;;;;7.53;2.60;;;17.80;68.40;;;;;;5053901;28;20173;-91
2021/08/09 02:16:51;;;;;;;10.88;3.83;;;17.70;68.50;;;;;;5053772;28;20193;-91
2021/08/09 02:19:30;;;;;;;8.20;2.92;;;17.90;68.40;;;;;;5053741;28;20204;-91
2021/08/09 02:22:09;;;;;;;6.50;3.25;;;17.90;68.10;;;;;;5052979;28;20200;-91
2021/08/09 02:24:57;;;;;;;7.00;3.75;;;17.80;68.20;;;;;;5053670;28;20177;-91
2021/08/09 02:27:29;;;;;;;6.70;3.17;;;17.90;68.60;;;;;;5053274;28;20200;-92
2021/08/09 02:29:55;;;;;;;6.40;2.95;;;17.90;68.30;;;;;;5061842;28;20226;-91
2021/08/09 02:32:32;;;;;;;6.93;2.53;;;18.00;68.00;;;;;;5054277;28;20197;-91
2021/08/09 02:34:59;;;;;;;12.18;3.35;;;18.10;68.00;;;;;;5053441;28;20267;-91
2021/08/09 02:37:27;;;;;;;5.00;2.75;;;17.80;68.00;;;;;;5058674;28;20242;-91
2021/08/09 02:39:54;;;;;;;7.35;3.45;;;18.00;68.20;;;;;;5059586;28;20204;-91
2021/08/09 02:42:20;;;;;;;7.40;3.20;;;18.00;68.00;;;;;;5053334;28;20203;-91
2021/08/09 02:44:47;;;;;;;7.57;3.08;;;17.90;68.10;;;;;;5052761;28;20173;-92
2021/08/09 02:47:14;;;;;;;8.63;2.63;;;18.00;68.00;;;;;;5052396;28;20208;-91
2021/08/09 02:49:47;;;;;;;9.63;3.03;;;18.00;68.10;;;;;;5053137;28;20181;-91
2021/08/09 02:52:13;;;;;;;6.38;3.00;;;18.10;67.80;;;;;;5052729;28;20683;-91
2021/08/09 02:54:41;;;;;;;14.10;2.70;;;18.20;67.60;;;;;;5052842;28;20236;-91
2021/08/09 02:57:08;;;;;;;10.75;2.53;;;18.10;67.60;;;;;;5052996;28;20177;-91
2021/08/09 02:59:35;;;;;;;14.68;4.40;;;18.10;67.60;;;;;;5052119;28;20211;-92
2021/08/09 03:02:03;;;;;;;4.22;2.80;;;18.00;67.80;;;;;;5051947;28;20193;-91
2021/08/09 03:04:29;;;;;;;13.98;3.47;;;18.00;67.90;;;;;;5052904;28;20177;-91
2021/08/09 03:06:57;;;;;;;11.98;3.17;;;18.10;68.00;;;;;;5052355;28;20257;-91
2021/08/09 03:09:23;;;;;;;6.07;2.38;;;17.90;68.00;;;;;;5053559;28;20702;-91
2021/08/09 03:11:48;;;;;;;6.18;2.90;;;18.00;68.10;;;;;;5052062;28;20177;-91
2021/08/09 03:14:25;;;;;;;17.77;3.30;;;18.10;68.10;;;;;;5052518;28;20177;-91
2021/08/09 03:16:51;;;;;;;13.43;3.65;;;18.10;67.80;;;;;;5052150;28;20238;-91
2021/08/09 03:19:17;;;;;;;11.35;3.17;;;18.00;67.90;;;;;;5052244;28;20197;-91
2021/08/09 03:21:54;;;;;;;8.60;2.70;;;18.00;68.10;;;;;;5051789;28;20227;-91
2021/08/09 03:24:21;;;;;;;9.43;3.25;;;18.00;68.20;;;;;;5059699;28;20201;-91
2021/08/09 03:26:48;;;;;;;6.93;3.30;;;18.10;68.10;;;;;;5053413;28;20186;-92
2021/08/09 03:29:14;;;;;;;8.80;3.67;;;18.00;68.20;;;;;;5051997;28;20260;-92
2021/08/09 03:31:40;;;;;;;7.95;4.10;;;18.00;68.40;;;;;;5051555;28;20539;-92
2021/08/09 03:34:06;;;;;;;7.67;4.30;;;18.00;68.40;;;;;;5052047;28;20223;-91
2021/08/09 03:36:32;;;;;;;6.68;3.70;;;17.90;68.60;;;;;;5053308;28;20266;-91
2021/08/09 03:38:57;;;;;;;11.70;5.13;;;18.00;68.90;;;;;;5054541;28;20197;-92
2021/08/09 03:41:23;;;;;;;5.27;3.80;;;18.00;69.00;;;;;;5052622;28;20174;-91
2021/08/09 03:43:49;;;;;;;8.10;3.77;;;18.00;69.00;;;;;;5054846;28;20190;-91
2021/08/09 03:46:15;;;;;;;11.00;3.23;;;18.10;69.10;;;;;;5053560;28;20199;-92
2021/08/09 03:48:41;;;;;;;13.03;2.70;;;18.20;68.90;;;;;;5053417;28;20181;-91
2021/08/09 03:51:07;;;;;;;10.20;3.00;;;18.20;68.80;;;;;;5052460;28;20208;-91
2021/08/09 03:53:33;;;;;;;12.50;3.67;;;18.20;68.70;;;;;;5051488;28;20209;-91
2021/08/09 03:55:59;;;;;;;4.22;3.00;;;18.10;68.90;;;;;;5051813;28;20420;-91
2021/08/09 03:58:25;;;;;;;4.80;2.70;;;18.10;69.10;;;;;;5051560;28;20216;-91
2021/08/09 04:00:51;;;;;;;7.93;2.90;;;18.10;69.20;;;;;;5052030;28;20188;-91
2021/08/09 04:03:17;;;;;;;6.00;3.40;;;18.10;69.20;;;;;;5051408;28;20205;-92
2021/08/09 04:05:42;;;;;;;3.65;2.80;;;18.00;69.20;;;;;;5051714;28;20794;-91
2021/08/09 04:08:09;;;;;;;5.50;3.73;;;18.00;69.30;;;;;;5051582;28;20264;-92
2021/08/09 04:10:34;;;;;;;8.68;3.45;;;18.00;69.60;;;;;;5051516;28;20234;-92
2021/08/09 04:13:00;;;;;;;4.97;3.20;;;18.00;69.60;;;;;;5051101;28;20295;-91
2021/08/09 04:15:26;;;;;;;6.80;3.70;;;18.20;69.40;;;;;;5051616;28;20662;-91
2021/08/09 04:17:51;;;;;;;8.00;3.67;;;18.10;69.20;;;;;;5051585;28;20255;-91
2021/08/09 04:20:17;;;;;;;7.00;3.30;;;18.00;69.40;;;;;;5061588;28;20196;-91
2021/08/09 04:22:43;;;;;;;12.03;4.57;;;18.10;69.50;;;;;;5052044;28;20197;-91
2021/08/09 04:25:09;;;;;;;6.90;3.30;;;18.10;69.20;;;;;;5051581;28;20207;-91
2021/08/09 04:27:34;;;;;;;6.65;3.70;;;18.20;69.20;;;;;;5051262;28;20169;-91
2021/08/09 04:30:00;;;;;;;11.17;3.83;;;18.20;69.10;;;;;;5052023;28;20254;-91
2021/08/09 04:32:35;;;;;;;7.43;3.17;;;18.20;69.00;;;;;;5051786;28;20197;-91
2021/08/09 04:35:01;;;;;;;3.53;3.17;;;18.20;69.00;;;;;;5051523;28;20584;-91
2021/08/09 04:37:27;;;;;;;7.73;3.30;;;18.10;68.90;;;;;;5051575;28;20264;-92
2021/08/09 04:39:53;;;;;;;8.80;3.87;;;18.10;69.30;;;;;;5051838;28;20205;-91
2021/08/09 04:42:18;;;;;;;7.20;3.37;;;18.20;69.10;;;;;;5051053;28;20192;-92
2021/08/09 04:44:44;;;;;;;8.07;3.37;;;18.20;68.80;;;;;;5051409;28;20180;-92
2021/08/09 04:47:10;;;;;;;6.73;3.00;;;18.20;68.70;;;;;;5051581;28;20185;-92
2021/08/09 04:49:36;;;;;;;5.20;2.90;;;18.00;68.90;;;;;;5051604;28;20181;-92
2021/08/09 04:52:02;;;;;;;7.43;4.20;;;18.00;69.10;;;;;;5051195;28;20568;-91
2021/08/09 04:54:28;;;;;;;12.73;2.38;;;18.00;69.40;;;;;;5053375;28;20427;-92
2021/08/09 04:56:54;;;;;;;8.43;2.97;;;18.00;69.40;;;;;;5055153;28;20243;-91
2021/08/09 04:59:19;;;;;;;7.22;3.40;;;17.90;69.70;;;;;;5055427;28;20451;-91
2021/08/09 05:01:45;;;;;;;6.37;2.73;;;18.00;69.80;;;;;;5054598;28;20595;-91
2021/08/09 05:04:11;;;;;;;8.70;4.13;;;17.90;69.80;;;;;;5055106;28;20264;-91
2021/08/09 05:06:36;;;;;;;4.00;2.60;;;17.90;70.10;;;;;;5054742;28;20371;-92
2021/08/09 05:09:02;;;;;;;4.53;2.23;;;18.00;70.10;;;;;;5054902;28;20249;-92
2021/08/09 05:11:28;;;;;;;8.90;2.88;;;18.00;69.80;;;;;;5054699;28;20255;-91
2021/08/09 05:13:54;;;;;;;8.67;2.43;;;18.10;69.80;;;;;;5055321;28;20201;-92
2021/08/09 05:16:19;;;;;;;6.70;2.40;;;18.20;69.70;;;;;;5067031;28;20185;-91
2021/08/09 05:18:45;;;;;;;9.03;2.93;;;18.20;69.40;;;;;;5054901;28;20782;-91
2021/08/09 05:21:15;;;;;;;5.67;2.83;;;18.20;69.40;;;;;;5054170;28;20671;-91
2021/08/09 05:23:41;;;;;;;5.55;2.50;;;18.20;69.50;;;;;;5054950;28;20201;-92
2021/08/09 05:26:07;;;;;;;5.40;2.10;;;18.30;69.40;;;;;;5054865;28;20188;-92
2021/08/09 05:28:33;;;;;;;3.43;2.60;;;18.40;69.10;;;;;;5054740;28;20263;-91
2021/08/09 05:30:59;;;;;;;9.00;2.10;;;18.50;69.00;;;;;;5054821;28;20181;-91
2021/08/09 05:33:25;;;;;;;6.20;2.10;;;18.60;68.80;;;;;;5053975;28;20955;-90
2021/08/09 05:35:50;;;;;;;11.07;2.40;;;18.60;69.00;;;;;;5054728;28;20412;-91
2021/08/09 05:38:16;;;;;;;10.27;2.57;;;18.80;68.70;;;;;;5054387;28;20197;-91
2021/08/09 05:40:42;;;;;;;4.40;2.13;;;18.90;68.50;;;;;;5054392;28;20180;-90
2021/08/09 05:43:07;;;;;;;4.30;2.20;;;19.00;68.30;;;;;;5053833;28;20233;-91
2021/08/09 05:45:33;;;;;;;5.33;2.47;;;19.50;68.00;;;;;;5054597;28;20204;-91
2021/08/09 05:47:59;;;;;;;4.23;2.00;;;20.10;67.00;;;;;;5054510;28;20177;-91
2021/08/09 05:50:24;;;;;;;3.53;2.13;;;20.60;64.20;;;;;;5055257;28;20178;-90
2021/08/09 05:52:51;;;;;;;2.57;1.90;;;21.10;62.00;;;;;;5057072;28;20288;-90
2021/08/09 05:55:17;;;;;;;7.00;2.10;;;21.40;60.60;;;;;;5055862;28;20287;-91
2021/08/09 05:57:43;;;;;;;5.33;1.97;;;21.80;59.60;;;;;;5054187;28;20407;-90
2021/08/09 06:00:09;;;;;;;3.30;1.97;;;21.90;58.20;;;;;;5055471;28;20266;-91
2021/08/09 06:02:42;;;;;;;5.23;2.17;;;22.10;57.60;;;;;;5055169;28;20197;-90
2021/08/09 06:05:09;;;;;;;3.03;2.10;;;22.30;57.10;;;;;;5054411;28;20415;-91
2021/08/09 06:07:34;;;;;;;6.07;2.17;;;22.50;56.50;;;;;;5055457;28;20413;-90
2021/08/09 06:10:00;;;;;;;2.00;1.90;;;22.80;56.00;;;;;;5061400;28;20430;-90
2021/08/09 06:12:26;;;;;;;3.00;1.90;;;23.20;54.90;;;;;;5068698;28;20208;-91
2021/08/09 06:14:52;;;;;;;2.23;1.70;;;23.40;54.10;;;;;;5054740;28;20725;-91
2021/08/09 06:17:17;;;;;;;3.33;1.60;;;23.60;53.40;;;;;;5054632;28;20220;-90
2021/08/09 06:19:43;;;;;;;1.97;1.77;;;23.80;53.00;;;;;;5054415;28;20205;-91
2021/08/09 06:22:09;;;;;;;1.80;1.70;;;23.90;52.50;;;;;;5056242;28;20287;-91
2021/08/09 06:24:34;;;;;;;5.37;2.00;;;23.50;52.20;;;;;;5054657;28;20177;-91
2021/08/09 06:27:00;;;;;;;4.37;2.23;;;23.10;53.00;;;;;;5055143;28;20683;-91
2021/08/09 06:29:26;;;;;;;8.50;2.93;;;22.70;54.30;;;;;;5055299;28;20173;-91
2021/08/09 06:31:52;;;;;;;5.10;2.03;;;22.50;56.00;;;;;;5054333;28;22716;-91
2021/08/09 06:34:18;;;;;;;7.47;2.30;;;22.10;55.90;;;;;;5053989;28;20941;-91
2021/08/09 06:36:44;;;;;;;2.90;1.80;;;21.60;57.30;;;;;;5054554;28;20420;-90
2021/08/09 06:39:12;;;;;;;2.40;2.20;;;21.30;58.90;;;;;;5054648;28;20224;-91
2021/08/09 06:41:38;;;;;;;3.40;2.20;;;21.40;59.40;;;;;;5053775;28;20444;-90
2021/08/09 06:44:04;;;;;;;6.33;2.07;;;21.10;59.70;;;;;;5054569;28;20870;-91
2021/08/09 06:46:30;;;;;;;3.60;1.70;;;21.00;60.40;;;;;;5055307;28;20499;-90
2021/08/09 06:48:55;;;;;;;9.33;2.20;;;20.60;61.10;;;;;;5054866;28;20415;-91
2021/08/09 06:51:21;;;;;;;3.03;1.90;;;20.80;61.80;;;;;;5056718;28;20238;-91
2021/08/09 06:53:47;;;;;;;4.70;2.20;;;20.90;61.70;;;;;;5054382;28;20197;-90
2021/08/09 06:56:14;;;;;;;7.07;2.07;;;20.90;61.70;;;;;;5060894;28;20180;-91
2021/08/09 06:58:41;;;;;;;4.90;2.33;;;21.00;61.50;;;;;;5057174;28;20286;-91
2021/08/09 07:01:06;;;;;;;2.75;2.00;;;21.10;61.00;;;;;;5057230;28;20495;-91
2021/08/09 07:03:32;;;;;;;4.53;2.00;;;21.10;61.00;;;;;;5057642;28;20254;-90
2021/08/09 07:05:58;;;;;;;3.83;2.60;;;21.30;60.80;;;;;;5067218;28;20273;-90
2021/08/09 07:08:24;;;;;;;3.37;2.50;;;21.20;60.40;;;;;;5074590;28;20420;-90
2021/08/09 07:10:52;;;;;;;5.30;2.30;;;21.00;60.60;;;;;;5075015;28;20404;-90
2021/08/09 07:13:18;;;;;;;2.92;2.15;;;21.00;60.90;;;;;;5062061;28;20435;-91
2021/08/09 07:15:44;;;;;;;8.20;2.77;;;21.10;60.80;;;;;;5058358;28;20193;-91
2021/08/09 07:18:10;;;;;;;5.40;2.20;;;21.20;60.60;;;;;;5058863;28;20457;-91
2021/08/09 07:20:35;;;;;;;5.27;2.20;;;21.20;60.60;;;;;;5059056;28;20328;-91
2021/08/09 07:23:01;;;;;;;7.70;2.93;;;21.20;60.80;;;;;;5042531;28;20439;-91
2021/08/09 07:25:27;;;;;;;2.70;2.20;;;21.00;60.90;;;;;;5059440;28;20177;-91
2021/08/09 07:27:54;;;;;;;7.13;2.87;;;21.20;60.80;;;;;;5059626;28;20169;-91
2021/08/09 07:30:20;;;;;;;3.43;3.10;;;21.30;60.90;;;;;;5060119;28;20431;-91
2021/08/09 07:32:46;;;;;;;9.37;2.93;;;21.40;60.30;;;;;;5058228;28;20424;-90
2021/08/09 07:35:12;;;;;;;4.82;2.53;;;21.10;60.10;;;;;;5056706;28;20411;-91
2021/08/09 07:37:38;;;;;;;6.97;2.77;;;20.90;60.80;;;;;;5055016;28;20185;-91
2021/08/09 07:40:05;;;;;;;4.57;2.20;;;21.00;61.10;;;;;;5063342;28;20479;-90
2021/08/09 07:42:31;;;;;;;4.37;2.77;;;21.10;61.00;;;;;;5057477;28;20435;-91
2021/08/09 07:44:57;;;;;;;3.53;2.40;;;21.10;61.00;;;;;;5059059;28;20515;-90
2021/08/09 07:47:23;;;;;;;5.47;2.70;;;21.10;61.20;;;;;;5074610;28;20403;-91
2021/08/09 07:49:49;;;;;;;6.50;2.70;;;21.10;61.20;;;;;;5075409;28;20184;-91
2021/08/09 07:52:15;;;;;;;4.40;2.90;;;21.20;61.10;;;;;;5073156;28;20423;-90
2021/08/09 07:54:41;;;;;;;6.77;2.43;;;21.40;60.90;;;;;;5061802;28;20234;-91
2021/08/09 07:57:07;;;;;;;5.03;3.00;;;21.50;60.20;;;;;;5053316;28;20415;-91
2021/08/09 07:59:33;;;;;;;14.13;2.63;;;21.50;60.00;;;;;;5055128;28;20208;-90
2021/08/09 08:02:02;;;;;;;7.27;2.80;;;21.40;59.60;;;;;;5057289;28;20205;-91
2021/08/09 08:04:28;;;;;;;2.83;2.10;;;21.10;59.90;;;;;;5062741;28;20412;-91
2021/08/09 08:06:55;;;;;;;4.80;2.70;;;21.40;59.90;;;;;;5060226;28;20419;-90
2021/08/09 08:09:20;;;;;;;6.00;2.10;;;21.50;59.80;;;;;;5056574;28;20467;-90
2021/08/09 08:11:46;;;;;;;5.47;2.30;;;21.70;59.60;;;;;;5057718;28;20427;-91
2021/08/09 08:14:12;;;;;;;3.87;2.27;;;21.80;59.20;;;;;;5061512;28;20169;-90
2021/08/09 08:16:38;;;;;;;5.97;2.63;;;21.50;58.80;;;;;;5076913;28;20438;-91
2021/08/09 08:19:04;;;;;;;4.77;2.20;;;21.70;59.40;;;;;;5076683;28;20491;-90
2021/08/09 08:21:30;;;;;;;5.43;2.60;;;21.80;59.20;;;;;;5075919;28;20426;-91
2021/08/09 08:23:56;;;;;;;3.17;2.50;;;22.00;59.10;;;;;;5075901;28;20201;-90
2021/08/09 08:26:22;;;;;;;5.10;2.33;;;21.60;58.10;;;;;;5076358;28;20419;-90
2021/08/09 08:28:47;;;;;;;6.47;2.30;;;21.60;58.60;;;;;;5078016;28;20183;-91
2021/08/09 08:31:13;;;;;;;6.50;2.67;;;21.50;59.10;;;;;;5080441;28;20173;-90
2021/08/09 08:33:39;;;;;;;5.23;2.63;;;21.20;59.00;;;;;;5080191;28;20253;-90
2021/08/09 08:36:05;;;;;;;8.53;2.60;;;20.80;60.40;;;;;;5080208;28;20209;-91
2021/08/09 08:38:30;;;;;;;7.43;2.70;;;20.60;61.10;;;;;;5079850;28;20228;-90
2021/08/09 08:40:59;;;;;;;15.70;3.70;;;20.40;61.70;;;;;;5079412;28;20197;-90
2021/08/09 08:43:26;;;;;;;6.20;2.83;;;20.70;62.10;;;;;;5079937;28;20258;-89
2021/08/09 08:45:59;;;;;;;9.27;3.05;;;20.90;62.10;;;;;;5075714;28;20177;-91
2021/08/09 08:48:27;;;;;;;5.93;3.13;;;20.50;62.00;;;;;;5064903;28;20180;-90
2021/08/09 08:50:54;;;;;;;3.25;2.95;;;20.70;63.00;;;;;;5065565;28;20185;-91
2021/08/09 08:53:20;;;;;;;6.70;2.92;;;20.80;63.80;;;;;;5063617;28;20208;-91
2021/08/09 08:55:46;;;;;;;6.33;3.70;;;21.00;63.80;;;;;;5064729;28;20189;-90
2021/08/09 08:58:12;;;;;;;5.20;2.38;;;21.00;64.10;;;;;;5073250;28;20220;-90
2021/08/09 09:00:41;;;;;;;6.43;2.80;;;20.70;64.40;;;;;;5064749;28;20173;-90
2021/08/09 09:03:18;;;;;;;10.60;3.20;;;20.60;65.30;;;;;;5064430;28;20197;-91
2021/08/09 09:06:00;;;;;;;3.00;2.17;;;20.40;66.20;;;;;;5061503;28;20185;-91
2021/08/09 09:08:42;;;;;;;5.32;2.65;;;20.70;66.90;;;;;;5057945;28;20184;-91
2021/08/09 09:11:13;;;;;;;5.07;2.70;;;20.50;66.80;;;;;;5058065;28;20188;-91
2021/08/09 09:14:22;;;;;;;5.78;2.17;;;20.70;66.60;;;;;;5058767;28;20257;-90
2021/08/09 09:16:50;;;;;;;4.93;2.30;;;21.00;65.70;;;;;;5004187;28;20194;-91
2021/08/09 09:19:36;;;;;;;4.60;2.73;;;21.30;64.90;;;;;;5054166;28;20201;-90
2021/08/09 09:22:07;;;;;;;7.33;2.53;;;21.60;63.90;;;;;;5061445;28;20447;-91
2021/08/09 09:24:34;;;;;;;5.33;2.30;;;21.90;63.30;;;;;;5059969;28;20416;-91
2021/08/09 09:27:08;;;;;;;4.07;2.83;;;22.10;62.30;;;;;;5058454;28;20438;-91
2021/08/09 09:29:39;;;;;;;6.90;2.40;;;21.90;61.00;;;;;;5058562;28;20498;-90
2021/08/09 09:32:19;;;;;;;3.27;2.33;;;22.00;61.30;;;;;;5058578;28;20443;-91
2021/08/09 09:34:45;;;;;;;5.10;2.33;;;21.90;62.40;;;;;;5061877;28;20419;-91
2021/08/09 09:37:22;;;;;;;9.40;2.40;;;22.00;62.50;;;;;;5060243;28;20453;-90
2021/08/09 09:39:48;;;;;;;5.10;2.40;;;22.00;61.50;;;;;;5058966;28;20447;-91
2021/08/09 09:42:15;;;;;;;5.10;2.00;;;22.20;61.20;;;;;;5056540;28;20431;-90
2021/08/09 09:44:43;;;;;;;4.40;1.93;;;22.20;60.10;;;;;;5055597;28;20185;-91
2021/08/09 09:47:22;;;;;;;4.40;1.83;;;22.50;60.60;;;;;;5064616;28;20420;-90
2021/08/09 09:49:49;;;;;;;4.73;1.90;;;22.60;58.40;;;;;;5061458;28;20791;-90
2021/08/09 09:52:45;;;;;;;7.33;1.60;;;22.50;58.70;;;;;;5057230;28;20442;-90
2021/08/09 09:55:14;;;;;;;3.40;1.40;;;22.50;58.60;;;;;;5056513;28;20942;-91
2021/08/09 09:57:41;;;;;;;3.30;1.50;;;22.40;58.20;;;;;;5058648;28;20418;-90
2021/08/09 10:00:11;;;;;;;4.23;1.53;;;22.60;58.40;;;;;;5056779;28;20524;-91
2021/08/09 10:02:45;;;;;;;2.70;1.20;;;23.10;57.70;;;;;;5055785;28;20435;-91
2021/08/09 10:05:14;;;;;;;5.37;2.27;;;23.20;55.20;;;;;;5056243;28;20441;-90
2021/08/09 10:07:41;;;;;;;3.47;1.77;;;23.50;54.50;;;;;;5057558;28;20833;-91
2021/08/09 10:10:09;;;;;;;5.17;1.70;;;23.70;54.00;;;;;;5056156;28;20994;-91
2021/08/09 10:12:36;;;;;;;4.20;1.80;;;23.80;53.60;;;;;;5055204;28;20443;-90
2021/08/09 10:15:03;;;;;;;2.60;1.57;;;23.90;54.30;;;;;;5054631;28;20524;-91
2021/08/09 10:17:31;;;;;;;1.83;1.40;;;23.70;53.70;;;;;;5054536;28;20539;-91
2021/08/09 10:20:09;;;;;;;6.37;1.60;;;23.50;54.00;;;;;;5055597;28;20463;-91
2021/08/09 10:22:35;;;;;;;4.33;1.73;;;23.60;54.30;;;;;;5056155;28;20435;-91
2021/08/09 10:25:11;;;;;;;1.93;1.33;;;23.90;53.90;;;;;;5055078;28;20837;-91
2021/08/09 10:28:03;;;;;;;3.83;2.07;;;24.10;52.30;;;;;;5055678;28;20441;-90
2021/08/09 10:30:34;;;;;;;6.37;2.27;;;24.00;52.20;;;;;;5056430;28;20465;-90
2021/08/09 10:33:01;;;;;;;2.67;1.90;;;24.10;51.90;;;;;;5059321;28;20515;-90
2021/08/09 10:35:39;;;;;;;3.40;1.90;;;24.20;51.40;;;;;;5057055;28;20462;-91
2021/08/09 10:38:22;;;;;;;2.50;1.67;;;24.20;51.00;;;;;;5059444;28;20431;-91
2021/08/09 10:41:07;;;;;;;3.27;1.40;;;24.30;51.40;;;;;;5056823;28;20426;-91
2021/08/09 10:43:34;;;;;;;2.70;1.60;;;24.10;51.30;;;;;;5055129;28;20440;-91
2021/08/09 10:46:01;;;;;;;2.87;1.97;;;24.00;51.10;;;;;;5055182;28;20427;-91
2021/08/09 10:48:53;;;;;;;2.43;1.40;;;24.00;51.60;;;;;;5058686;28;20408;-90
2021/08/09 10:51:38;;;;;;;4.57;2.23;;;23.60;52.30;;;;;;5060945;28;20435;-92
2021/08/09 10:54:28;;;;;;;3.37;2.13;;;23.60;53.30;;;;;;5067043;28;20419;-91
2021/08/09 10:56:55;;;;;;;5.37;2.30;;;23.40;53.00;;;;;;5059578;28;20426;-91
2021/08/09 10:59:42;;;;;;;1.90;1.80;;;23.30;53.80;;;;;;5058062;28;20574;-91
2021/08/09 11:02:15;;;;;;;5.80;1.97;;;23.60;53.80;;;;;;5058891;28;20427;-91
2021/08/09 11:04:41;;;;;;;3.20;1.63;;;23.70;53.70;;;;;;5058054;28;20419;-91
2021/08/09 11:07:17;;;;;;;8.47;2.20;;;23.60;53.40;;;;;;5056160;28;21022;-91
2021/08/09 11:09:47;;;;;;;4.97;2.10;;;23.70;53.60;;;;;;5057738;28;20259;-91
2021/08/09 11:12:23;;;;;;;7.30;2.10;;;24.00;53.30;;;;;;5057603;28;20436;-91
2021/08/09 11:17:29;;;;;;;2.17;1.90;;;24.00;52.60;;;;;;5062520;28;20421;-91
2021/08/09 11:20:14;;;;;;;2.23;2.10;;;24.00;52.40;;;;;;5060657;28;20456;-90
2021/08/09 11:22:43;;;;;;;4.10;2.07;;;24.00;52.50;;;;;;5061455;28;20494;-91
2021/08/09 11:25:34;;;;;;;3.27;3.07;;;24.10;52.20;;;;;;5056945;28;20430;-91
2021/08/09 11:28:04;;;;;;;4.77;2.43;;;24.20;51.80;;;;;;5064199;28;20432;-91
2021/08/09 11:30:37;;;;;;;9.80;3.07;;;23.90;51.60;;;;;;5068941;28;20444;-91
2021/08/09 11:33:04;;;;;;;7.90;2.60;;;23.80;51.90;;;;;;5052575;28;20435;-91
2021/08/09 11:35:29;;;;;;;9.53;2.23;;;23.70;52.00;;;;;;5053380;28;20919;-91
2021/08/09 11:38:01;;;;;;;4.60;1.73;;;23.80;52.00;;;;;;5060617;28;20460;-91
2021/08/09 11:40:38;;;;;;;6.87;2.17;;;23.50;52.20;;;;;;5053463;28;20567;-89
2021/08/09 11:43:04;;;;;;;3.57;2.23;;;23.70;52.30;;;;;;5052672;28;20813;-89
2021/08/09 11:45:31;;;;;;;3.43;1.70;;;24.10;51.90;;;;;;5066810;28;20430;-90
2021/08/09 11:47:57;;;;;;;4.27;2.40;;;24.40;50.80;;;;;;5053517;28;20412;-89
2021/08/09 11:50:26;;;;;;;3.00;1.80;;;24.30;50.00;;;;;;5053664;28;20276;-90
2021/08/09 11:52:52;;;;;;;2.57;2.03;;;24.50;49.90;;;;;;5052329;28;20200;-90
2021/08/09 11:55:22;;;;;;;5.33;2.10;;;24.50;49.50;;;;;;5054086;28;20424;-90
2021/08/09 11:57:48;;;;;;;2.50;2.30;;;24.50;48.90;;;;;;5065340;28;20422;-89
2021/08/09 12:00:15;;;;;;;4.63;2.40;;;24.70;48.80;;;;;;5054467;28;20467;-90
2021/08/09 12:03:13;;;;;;;3.57;2.20;;;24.80;48.10;;;;;;5055442;28;20435;-90
2021/08/09 12:05:39;;;;;;;11.67;2.90;;;25.10;48.40;;;;;;5060146;28;20415;-90
2021/08/09 12:08:07;;;;;;;4.97;3.00;;;25.40;47.60;;;;;;5058709;28;20939;-90
2021/08/09 12:10:34;;;;;;;7.37;2.90;;;25.50;46.80;;;;;;5059496;28;20465;-90
2021/08/09 12:13:03;;;;;;;9.13;2.33;;;25.20;47.00;;;;;;5058567;28;20431;-90
2021/08/09 12:15:29;;;;;;;2.90;2.00;;;25.30;46.60;;;;;;5058565;28;20420;-90
2021/08/09 12:18:06;;;;;;;5.27;2.37;;;25.40;46.00;;;;;;5058856;28;20583;-90
2021/08/09 12:20:33;;;;;;;2.13;1.93;;;25.10;46.10;;;;;;5058828;28;20473;-90
2021/08/09 12:22:59;;;;;;;2.50;2.23;;;24.90;46.90;;;;;;5059221;28;20432;-90
2021/08/09 12:25:39;;;;;;;2.50;2.30;;;24.60;47.10;;;;;;5060038;28;20411;-90
2021/08/09 12:28:07;;;;;;;4.20;2.97;;;24.30;48.00;;;;;;5061481;28;20926;-90
2021/08/09 12:30:52;;;;;;;4.57;2.17;;;24.00;49.40;;;;;;5060461;28;20432;-90
2021/08/09 12:33:19;;;;;;;3.83;2.17;;;23.60;50.70;;;;;;5057943;28;20438;-90
2021/08/09 12:35:45;;;;;;;8.77;2.53;;;23.40;52.00;;;;;;5058307;28;20412;-90
2021/08/09 12:38:14;;;;;;;3.30;2.83;;;23.10;53.50;;;;;;5058293;28;20477;-90
2021/08/09 12:40:51;;;;;;;7.47;2.47;;;22.90;55.00;;;;;;5063189;28;20411;-89
2021/08/09 12:43:19;;;;;;;5.50;2.60;;;22.70;56.40;;;;;;5067133;28;20431;-90
2021/08/09 12:45:46;;;;;;;7.00;2.50;;;22.60;57.30;;;;;;5059685;28;21011;-90
2021/08/09 12:48:13;;;;;;;5.33;3.33;;;22.30;58.50;;;;;;5059782;28;20782;-90
2021/08/09 12:50:41;;;;;;;4.33;2.50;;;22.00;59.70;;;;;;5071956;28;20407;-89
2021/08/09 12:53:10;;;;;;;6.40;2.93;;;21.80;61.50;;;;;;5078514;28;20431;-89
2021/08/09 12:55:36;;;;;;;9.03;3.00;;;21.80;63.30;;;;;;5079095;28;20408;-89